sensor_id;sensor_type;location;lat;lon;timestamp;P1;durP1;ratioP1;P2;durP2;ratioP2
47089;SDS011;32840;52.516;13.294;2022-11-14T00:02:14;73.88;;;41.05;;
47089;SDS011;32840;52.516;13.294;2022-11-14T00:05:00;80.25;;;41.85;;
47089;SDS011;32840;52.516;13.294;2022-11-14T00:07:44;82.85;;;42.95;;
47089;SDS011;32840;52.516;13.294;2022-11-14T00:10:30;77.00;;;42.10;;
47089;SDS011;32840;52.516;13.294;2022-11-14T00:13:15;76.60;;;41.92;;
47089;SDS011;32840;52.516;13.294;2022-11-14T00:16:01;82.93;;;41.22;;
47089;SDS011;32840;52.516;13.294;2022-11-14T00:18:46;87.82;;;44.97;;
47089;SDS011;32840;52.516;13.294;2022-11-14T00:21:31;82.03;;;42.55;;
47089;SDS011;32840;52.516;13.294;2022-11-14T00:24:16;79.30;;;42.67;;
47089;SDS011;32840;52.516;13.294;2022-11-14T00:27:01;81.85;;;42.50;;
47089;SDS011;32840;52.516;13.294;2022-11-14T00:29:46;87.10;;;42.80;;
47089;SDS011;32840;52.516;13.294;2022-11-14T00:32:31;83.88;;;43.80;;
47089;SDS011;32840;52.516;13.294;2022-11-14T00:35:16;79.80;;;42.40;;
47089;SDS011;32840;52.516;13.294;2022-11-14T00:38:01;80.97;;;44.58;;
47089;SDS011;32840;52.516;13.294;2022-11-14T00:40:46;77.97;;;43.55;;
47089;SDS011;32840;52.516;13.294;2022-11-14T00:43:31;85.47;;;45.67;;
47089;SDS011;32840;52.516;13.294;2022-11-14T00:46:16;84.50;;;42.65;;
47089;SDS011;32840;52.516;13.294;2022-11-14T00:49:01;83.07;;;43.40;;
47089;SDS011;32840;52.516;13.294;2022-11-14T00:51:46;80.25;;;43.08;;
47089;SDS011;32840;52.516;13.294;2022-11-14T00:54:31;81.75;;;43.05;;
47089;SDS011;32840;52.516;13.294;2022-11-14T00:57:17;90.18;;;45.80;;
47089;SDS011;32840;52.516;13.294;2022-11-14T01:00:02;82.60;;;42.95;;
47089;SDS011;32840;52.516;13.294;2022-11-14T01:02:48;82.55;;;44.00;;
47089;SDS011;32840;52.516;13.294;2022-11-14T01:05:33;83.07;;;43.53;;
47089;SDS011;32840;52.516;13.294;2022-11-14T01:08:23;78.70;;;43.13;;
47089;SDS011;32840;52.516;13.294;2022-11-14T01:11:12;86.43;;;44.55;;
47089;SDS011;32840;52.516;13.294;2022-11-14T01:13:59;83.80;;;44.35;;
47089;SDS011;32840;52.516;13.294;2022-11-14T01:16:43;80.03;;;42.63;;
47089;SDS011;32840;52.516;13.294;2022-11-14T01:19:28;89.97;;;44.38;;
47089;SDS011;32840;52.516;13.294;2022-11-14T01:22:13;87.95;;;44.85;;
47089;SDS011;32840;52.516;13.294;2022-11-14T01:24:58;92.43;;;46.05;;
47089;SDS011;32840;52.516;13.294;2022-11-14T01:27:43;85.35;;;44.38;;
47089;SDS011;32840;52.516;13.294;2022-11-14T01:30:29;89.95;;;44.70;;
47089;SDS011;32840;52.516;13.294;2022-11-14T01:33:14;91.68;;;47.95;;
47089;SDS011;32840;52.516;13.294;2022-11-14T01:35:59;92.28;;;43.75;;
47089;SDS011;32840;52.516;13.294;2022-11-14T01:38:44;93.13;;;46.10;;
47089;SDS011;32840;52.516;13.294;2022-11-14T01:41:29;84.63;;;44.92;;
47089;SDS011;32840;52.516;13.294;2022-11-14T01:47:44;94.05;;;43.88;;
47089;SDS011;32840;52.516;13.294;2022-11-14T01:50:29;85.88;;;42.05;;
47089;SDS011;32840;52.516;13.294;2022-11-14T01:53:14;91.20;;;45.50;;
47089;SDS011;32840;52.516;13.294;2022-11-14T01:56:00;91.97;;;45.20;;
47089;SDS011;32840;52.516;13.294;2022-11-14T01:58:58;84.72;;;43.75;;
47089;SDS011;32840;52.516;13.294;2022-11-14T02:01:50;89.75;;;44.17;;
47089;SDS011;32840;52.516;13.294;2022-11-14T02:04:40;87.30;;;44.80;;
47089;SDS011;32840;52.516;13.294;2022-11-14T02:07:28;95.15;;;45.53;;
47089;SDS011;32840;52.516;13.294;2022-11-14T02:10:18;89.43;;;44.97;;
47089;SDS011;32840;52.516;13.294;2022-11-14T02:13:04;89.28;;;42.83;;
47089;SDS011;32840;52.516;13.294;2022-11-14T02:15:49;87.07;;;42.25;;
47089;SDS011;32840;52.516;13.294;2022-11-14T02:18:34;89.88;;;45.17;;
47089;SDS011;32840;52.516;13.294;2022-11-14T02:21:19;92.63;;;47.05;;
47089;SDS011;32840;52.516;13.294;2022-11-14T02:24:06;92.13;;;45.45;;
47089;SDS011;32840;52.516;13.294;2022-11-14T02:26:53;95.82;;;46.83;;
47089;SDS011;32840;52.516;13.294;2022-11-14T02:29:38;95.85;;;45.38;;
47089;SDS011;32840;52.516;13.294;2022-11-14T02:32:23;95.28;;;45.53;;
47089;SDS011;32840;52.516;13.294;2022-11-14T02:35:08;93.30;;;46.00;;
47089;SDS011;32840;52.516;13.294;2022-11-14T02:37:52;92.55;;;44.55;;
47089;SDS011;32840;52.516;13.294;2022-11-14T02:40:37;95.35;;;46.70;;
47089;SDS011;32840;52.516;13.294;2022-11-14T02:43:22;98.28;;;45.67;;
47089;SDS011;32840;52.516;13.294;2022-11-14T02:46:07;91.28;;;43.17;;
47089;SDS011;32840;52.516;13.294;2022-11-14T02:48:52;88.60;;;43.90;;
47089;SDS011;32840;52.516;13.294;2022-11-14T02:51:37;87.63;;;42.97;;
47089;SDS011;32840;52.516;13.294;2022-11-14T02:54:22;92.32;;;44.72;;
47089;SDS011;32840;52.516;13.294;2022-11-14T02:57:07;91.38;;;44.25;;
47089;SDS011;32840;52.516;13.294;2022-11-14T02:59:52;87.90;;;42.97;;
47089;SDS011;32840;52.516;13.294;2022-11-14T03:02:37;89.30;;;44.20;;
47089;SDS011;32840;52.516;13.294;2022-11-14T03:05:22;97.53;;;45.65;;
47089;SDS011;32840;52.516;13.294;2022-11-14T03:08:07;91.20;;;42.53;;
47089;SDS011;32840;52.516;13.294;2022-11-14T03:10:51;85.95;;;41.30;;
47089;SDS011;32840;52.516;13.294;2022-11-14T03:13:37;98.60;;;43.78;;
47089;SDS011;32840;52.516;13.294;2022-11-14T03:16:22;104.22;;;48.33;;
47089;SDS011;32840;52.516;13.294;2022-11-14T03:19:06;95.28;;;44.22;;
47089;SDS011;32840;52.516;13.294;2022-11-14T03:21:51;96.38;;;45.95;;
47089;SDS011;32840;52.516;13.294;2022-11-14T03:24:36;87.85;;;44.50;;
47089;SDS011;32840;52.516;13.294;2022-11-14T03:27:21;94.13;;;44.70;;
47089;SDS011;32840;52.516;13.294;2022-11-14T03:30:06;90.25;;;42.45;;
47089;SDS011;32840;52.516;13.294;2022-11-14T03:32:51;92.78;;;42.50;;
47089;SDS011;32840;52.516;13.294;2022-11-14T03:35:40;88.63;;;41.83;;
47089;SDS011;32840;52.516;13.294;2022-11-14T03:38:26;97.05;;;43.25;;
47089;SDS011;32840;52.516;13.294;2022-11-14T03:41:11;88.57;;;41.90;;
47089;SDS011;32840;52.516;13.294;2022-11-14T03:43:56;91.97;;;42.45;;
47089;SDS011;32840;52.516;13.294;2022-11-14T03:46:41;86.93;;;41.42;;
47089;SDS011;32840;52.516;13.294;2022-11-14T03:49:25;84.05;;;41.58;;
47089;SDS011;32840;52.516;13.294;2022-11-14T03:52:10;86.30;;;42.05;;
47089;SDS011;32840;52.516;13.294;2022-11-14T03:54:55;87.88;;;42.85;;
47089;SDS011;32840;52.516;13.294;2022-11-14T03:57:40;84.90;;;39.53;;
47089;SDS011;32840;52.516;13.294;2022-11-14T04:00:25;89.13;;;42.72;;
47089;SDS011;32840;52.516;13.294;2022-11-14T04:03:11;94.25;;;43.30;;
47089;SDS011;32840;52.516;13.294;2022-11-14T04:05:56;87.22;;;41.22;;
47089;SDS011;32840;52.516;13.294;2022-11-14T04:08:41;96.43;;;44.50;;
47089;SDS011;32840;52.516;13.294;2022-11-14T04:11:26;84.82;;;41.90;;
47089;SDS011;32840;52.516;13.294;2022-11-14T04:14:11;92.65;;;43.47;;
47089;SDS011;32840;52.516;13.294;2022-11-14T04:16:56;92.13;;;42.28;;
47089;SDS011;32840;52.516;13.294;2022-11-14T04:19:41;97.90;;;44.63;;
47089;SDS011;32840;52.516;13.294;2022-11-14T04:22:26;91.13;;;42.70;;
47089;SDS011;32840;52.516;13.294;2022-11-14T04:25:11;97.20;;;43.72;;
47089;SDS011;32840;52.516;13.294;2022-11-14T04:27:56;88.13;;;42.20;;
47089;SDS011;32840;52.516;13.294;2022-11-14T04:30:41;94.25;;;43.10;;
47089;SDS011;32840;52.516;13.294;2022-11-14T04:33:28;95.25;;;43.10;;
47089;SDS011;32840;52.516;13.294;2022-11-14T04:36:13;92.97;;;40.22;;
47089;SDS011;32840;52.516;13.294;2022-11-14T04:38:58;88.85;;;42.80;;
47089;SDS011;32840;52.516;13.294;2022-11-14T04:41:43;95.72;;;44.15;;
47089;SDS011;32840;52.516;13.294;2022-11-14T04:44:28;97.43;;;43.08;;
47089;SDS011;32840;52.516;13.294;2022-11-14T04:47:13;92.68;;;43.50;;
47089;SDS011;32840;52.516;13.294;2022-11-14T04:49:58;98.13;;;44.17;;
47089;SDS011;32840;52.516;13.294;2022-11-14T04:52:42;97.75;;;44.38;;
47089;SDS011;32840;52.516;13.294;2022-11-14T04:55:27;92.03;;;43.47;;
47089;SDS011;32840;52.516;13.294;2022-11-14T04:58:12;93.28;;;42.90;;
47089;SDS011;32840;52.516;13.294;2022-11-14T05:00:57;93.13;;;42.95;;
47089;SDS011;32840;52.516;13.294;2022-11-14T05:03:42;91.05;;;41.95;;
47089;SDS011;32840;52.516;13.294;2022-11-14T05:06:27;96.75;;;42.35;;
47089;SDS011;32840;52.516;13.294;2022-11-14T05:09:12;95.25;;;42.17;;
47089;SDS011;32840;52.516;13.294;2022-11-14T05:11:57;98.13;;;43.42;;
47089;SDS011;32840;52.516;13.294;2022-11-14T05:14:42;98.65;;;43.53;;
47089;SDS011;32840;52.516;13.294;2022-11-14T05:17:27;105.60;;;46.20;;
47089;SDS011;32840;52.516;13.294;2022-11-14T05:20:12;91.53;;;41.17;;
47089;SDS011;32840;52.516;13.294;2022-11-14T05:22:57;97.53;;;44.85;;
47089;SDS011;32840;52.516;13.294;2022-11-14T05:25:42;100.20;;;46.20;;
47089;SDS011;32840;52.516;13.294;2022-11-14T05:28:27;95.22;;;41.80;;
47089;SDS011;32840;52.516;13.294;2022-11-14T05:31:13;99.95;;;44.17;;
47089;SDS011;32840;52.516;13.294;2022-11-14T05:34:00;94.93;;;42.63;;
47089;SDS011;32840;52.516;13.294;2022-11-14T05:36:45;100.72;;;43.17;;
47089;SDS011;32840;52.516;13.294;2022-11-14T05:39:30;89.43;;;41.25;;
47089;SDS011;32840;52.516;13.294;2022-11-14T05:42:15;94.20;;;44.22;;
47089;SDS011;32840;52.516;13.294;2022-11-14T05:45:00;98.72;;;44.20;;
47089;SDS011;32840;52.516;13.294;2022-11-14T05:47:45;102.47;;;45.92;;
47089;SDS011;32840;52.516;13.294;2022-11-14T05:50:30;104.50;;;45.40;;
47089;SDS011;32840;52.516;13.294;2022-11-14T05:53:15;99.10;;;44.28;;
47089;SDS011;32840;52.516;13.294;2022-11-14T05:56:03;95.43;;;43.22;;
47089;SDS011;32840;52.516;13.294;2022-11-14T05:58:49;99.90;;;44.83;;
47089;SDS011;32840;52.516;13.294;2022-11-14T06:01:34;101.57;;;44.92;;
47089;SDS011;32840;52.516;13.294;2022-11-14T06:04:19;100.85;;;44.00;;
47089;SDS011;32840;52.516;13.294;2022-11-14T06:07:04;96.85;;;44.45;;
47089;SDS011;32840;52.516;13.294;2022-11-14T06:09:48;94.97;;;43.65;;
47089;SDS011;32840;52.516;13.294;2022-11-14T06:12:33;96.97;;;42.90;;
47089;SDS011;32840;52.516;13.294;2022-11-14T06:15:18;100.28;;;43.58;;
47089;SDS011;32840;52.516;13.294;2022-11-14T06:18:03;101.15;;;42.15;;
47089;SDS011;32840;52.516;13.294;2022-11-14T06:20:48;100.88;;;45.13;;
47089;SDS011;32840;52.516;13.294;2022-11-14T06:23:33;103.07;;;44.08;;
47089;SDS011;32840;52.516;13.294;2022-11-14T06:26:25;102.00;;;46.53;;
47089;SDS011;32840;52.516;13.294;2022-11-14T06:29:14;99.40;;;44.22;;
47089;SDS011;32840;52.516;13.294;2022-11-14T06:31:59;95.22;;;44.25;;
47089;SDS011;32840;52.516;13.294;2022-11-14T06:34:44;109.65;;;47.55;;
47089;SDS011;32840;52.516;13.294;2022-11-14T06:37:29;92.63;;;43.05;;
47089;SDS011;32840;52.516;13.294;2022-11-14T06:40:14;97.07;;;41.47;;
47089;SDS011;32840;52.516;13.294;2022-11-14T06:42:59;96.50;;;44.20;;
47089;SDS011;32840;52.516;13.294;2022-11-14T06:45:44;104.95;;;45.38;;
47089;SDS011;32840;52.516;13.294;2022-11-14T06:48:29;97.43;;;41.63;;
47089;SDS011;32840;52.516;13.294;2022-11-14T06:51:15;106.45;;;45.38;;
47089;SDS011;32840;52.516;13.294;2022-11-14T06:54:00;104.63;;;42.88;;
47089;SDS011;32840;52.516;13.294;2022-11-14T06:56:45;88.15;;;40.47;;
47089;SDS011;32840;52.516;13.294;2022-11-14T06:59:30;95.82;;;41.92;;
47089;SDS011;32840;52.516;13.294;2022-11-14T07:02:15;98.28;;;42.13;;
47089;SDS011;32840;52.516;13.294;2022-11-14T07:05:00;100.88;;;45.63;;
47089;SDS011;32840;52.516;13.294;2022-11-14T07:07:45;99.07;;;44.13;;
47089;SDS011;32840;52.516;13.294;2022-11-14T07:10:30;96.05;;;41.90;;
47089;SDS011;32840;52.516;13.294;2022-11-14T07:13:15;99.93;;;41.30;;
47089;SDS011;32840;52.516;13.294;2022-11-14T07:15:59;94.60;;;42.17;;
47089;SDS011;32840;52.516;13.294;2022-11-14T07:18:45;98.38;;;42.97;;
47089;SDS011;32840;52.516;13.294;2022-11-14T07:21:32;93.68;;;43.53;;
47089;SDS011;32840;52.516;13.294;2022-11-14T07:24:18;98.05;;;43.70;;
47089;SDS011;32840;52.516;13.294;2022-11-14T07:27:04;101.28;;;44.78;;
47089;SDS011;32840;52.516;13.294;2022-11-14T07:29:51;100.15;;;45.50;;
47089;SDS011;32840;52.516;13.294;2022-11-14T07:32:36;102.13;;;43.85;;
47089;SDS011;32840;52.516;13.294;2022-11-14T07:35:21;98.22;;;43.38;;
47089;SDS011;32840;52.516;13.294;2022-11-14T07:38:06;97.95;;;43.22;;
47089;SDS011;32840;52.516;13.294;2022-11-14T07:40:54;94.60;;;43.30;;
47089;SDS011;32840;52.516;13.294;2022-11-14T07:43:41;103.32;;;43.78;;
47089;SDS011;32840;52.516;13.294;2022-11-14T07:46:26;99.88;;;42.60;;
47089;SDS011;32840;52.516;13.294;2022-11-14T07:49:11;99.38;;;42.67;;
47089;SDS011;32840;52.516;13.294;2022-11-14T07:51:56;98.75;;;40.28;;
47089;SDS011;32840;52.516;13.294;2022-11-14T07:54:41;90.13;;;42.20;;
47089;SDS011;32840;52.516;13.294;2022-11-14T07:57:26;107.63;;;42.80;;
47089;SDS011;32840;52.516;13.294;2022-11-14T08:00:12;95.78;;;40.75;;
47089;SDS011;32840;52.516;13.294;2022-11-14T08:02:58;97.50;;;43.60;;
47089;SDS011;32840;52.516;13.294;2022-11-14T08:05:43;89.28;;;42.22;;
47089;SDS011;32840;52.516;13.294;2022-11-14T08:08:28;90.28;;;40.78;;
47089;SDS011;32840;52.516;13.294;2022-11-14T08:11:13;92.38;;;41.05;;
47089;SDS011;32840;52.516;13.294;2022-11-14T08:13:58;92.68;;;40.03;;
47089;SDS011;32840;52.516;13.294;2022-11-14T08:16:43;89.20;;;41.10;;
47089;SDS011;32840;52.516;13.294;2022-11-14T08:19:28;89.43;;;39.17;;
47089;SDS011;32840;52.516;13.294;2022-11-14T08:22:13;93.72;;;39.50;;
47089;SDS011;32840;52.516;13.294;2022-11-14T08:24:58;89.85;;;40.38;;
47089;SDS011;32840;52.516;13.294;2022-11-14T08:27:43;94.88;;;41.40;;
47089;SDS011;32840;52.516;13.294;2022-11-14T08:30:28;89.28;;;40.30;;
47089;SDS011;32840;52.516;13.294;2022-11-14T08:33:13;87.43;;;40.42;;
47089;SDS011;32840;52.516;13.294;2022-11-14T08:36:01;92.60;;;41.40;;
47089;SDS011;32840;52.516;13.294;2022-11-14T08:38:46;92.88;;;42.20;;
47089;SDS011;32840;52.516;13.294;2022-11-14T08:41:32;94.88;;;42.35;;
47089;SDS011;32840;52.516;13.294;2022-11-14T08:44:16;88.03;;;39.15;;
47089;SDS011;32840;52.516;13.294;2022-11-14T08:47:01;96.40;;;41.97;;
47089;SDS011;32840;52.516;13.294;2022-11-14T08:49:47;91.03;;;41.85;;
47089;SDS011;32840;52.516;13.294;2022-11-14T08:52:32;85.78;;;40.95;;
47089;SDS011;32840;52.516;13.294;2022-11-14T08:55:17;95.25;;;41.10;;
47089;SDS011;32840;52.516;13.294;2022-11-14T08:58:03;85.10;;;39.95;;
47089;SDS011;32840;52.516;13.294;2022-11-14T09:00:47;89.55;;;40.45;;
47089;SDS011;32840;52.516;13.294;2022-11-14T09:03:35;83.47;;;39.28;;
47089;SDS011;32840;52.516;13.294;2022-11-14T09:06:20;91.40;;;40.70;;
47089;SDS011;32840;52.516;13.294;2022-11-14T09:09:05;91.45;;;39.35;;
47089;SDS011;32840;52.516;13.294;2022-11-14T09:11:49;90.18;;;39.85;;
47089;SDS011;32840;52.516;13.294;2022-11-14T09:14:34;88.45;;;38.88;;
47089;SDS011;32840;52.516;13.294;2022-11-14T09:17:19;87.03;;;39.25;;
47089;SDS011;32840;52.516;13.294;2022-11-14T09:20:04;90.57;;;40.40;;
47089;SDS011;32840;52.516;13.294;2022-11-14T09:22:49;87.32;;;40.88;;
47089;SDS011;32840;52.516;13.294;2022-11-14T09:25:36;96.75;;;39.00;;
47089;SDS011;32840;52.516;13.294;2022-11-14T09:28:22;85.82;;;41.10;;
47089;SDS011;32840;52.516;13.294;2022-11-14T09:31:09;95.40;;;38.30;;
47089;SDS011;32840;52.516;13.294;2022-11-14T09:33:55;88.80;;;38.20;;
47089;SDS011;32840;52.516;13.294;2022-11-14T09:36:41;87.82;;;38.33;;
47089;SDS011;32840;52.516;13.294;2022-11-14T09:39:25;82.72;;;38.22;;
47089;SDS011;32840;52.516;13.294;2022-11-14T09:45:14;73.78;;;36.40;;
47089;SDS011;32840;52.516;13.294;2022-11-14T09:48:03;76.10;;;36.25;;
47089;SDS011;32840;52.516;13.294;2022-11-14T09:51:01;75.85;;;35.83;;
47089;SDS011;32840;52.516;13.294;2022-11-14T09:57:12;69.18;;;35.50;;
47089;SDS011;32840;52.516;13.294;2022-11-14T09:59:59;71.15;;;33.10;;
47089;SDS011;32840;52.516;13.294;2022-11-14T10:02:56;72.00;;;35.45;;
47089;SDS011;32840;52.516;13.294;2022-11-14T10:06:01;68.28;;;32.55;;
47089;SDS011;32840;52.516;13.294;2022-11-14T10:12:13;67.38;;;32.75;;
47089;SDS011;32840;52.516;13.294;2022-11-14T10:15:09;69.57;;;34.15;;
47089;SDS011;32840;52.516;13.294;2022-11-14T10:18:10;73.32;;;35.33;;
47089;SDS011;32840;52.516;13.294;2022-11-14T10:21:02;72.53;;;34.75;;
47089;SDS011;32840;52.516;13.294;2022-11-14T10:27:14;69.43;;;34.22;;
47089;SDS011;32840;52.516;13.294;2022-11-14T10:39:29;69.97;;;33.88;;
47089;SDS011;32840;52.516;13.294;2022-11-14T10:45:17;66.28;;;31.95;;
47089;SDS011;32840;52.516;13.294;2022-11-14T10:48:24;65.65;;;33.47;;
47089;SDS011;32840;52.516;13.294;2022-11-14T10:51:25;62.35;;;31.67;;
47089;SDS011;32840;52.516;13.294;2022-11-14T10:57:15;59.13;;;32.13;;
47089;SDS011;32840;52.516;13.294;2022-11-14T11:00:08;57.78;;;29.70;;
47089;SDS011;32840;52.516;13.294;2022-11-14T11:02:55;60.92;;;31.88;;
47089;SDS011;32840;52.516;13.294;2022-11-14T11:05:45;62.95;;;29.73;;
47089;SDS011;32840;52.516;13.294;2022-11-14T11:08:39;55.85;;;30.27;;
47089;SDS011;32840;52.516;13.294;2022-11-14T11:11:51;59.22;;;30.83;;
47089;SDS011;32840;52.516;13.294;2022-11-14T11:14:41;58.38;;;30.48;;
47089;SDS011;32840;52.516;13.294;2022-11-14T11:17:27;60.30;;;31.52;;
47089;SDS011;32840;52.516;13.294;2022-11-14T11:23:15;54.65;;;30.77;;
47089;SDS011;32840;52.516;13.294;2022-11-14T11:31:56;57.95;;;31.70;;
47089;SDS011;32840;52.516;13.294;2022-11-14T11:34:42;57.80;;;30.92;;
47089;SDS011;32840;52.516;13.294;2022-11-14T11:37:29;57.90;;;30.88;;
47089;SDS011;32840;52.516;13.294;2022-11-14T11:40:22;55.90;;;29.55;;
47089;SDS011;32840;52.516;13.294;2022-11-14T11:46:21;58.13;;;31.48;;
47089;SDS011;32840;52.516;13.294;2022-11-14T11:55:41;56.13;;;30.13;;
47089;SDS011;32840;52.516;13.294;2022-11-14T11:58:34;57.08;;;30.70;;
47089;SDS011;32840;52.516;13.294;2022-11-14T12:01:24;51.75;;;28.73;;
47089;SDS011;32840;52.516;13.294;2022-11-14T12:04:09;54.33;;;29.08;;
47089;SDS011;32840;52.516;13.294;2022-11-14T12:07:07;51.55;;;29.90;;
47089;SDS011;32840;52.516;13.294;2022-11-14T12:09:57;51.80;;;28.35;;
47089;SDS011;32840;52.516;13.294;2022-11-14T12:16:05;51.20;;;28.33;;
47089;SDS011;32840;52.516;13.294;2022-11-14T12:25:37;52.42;;;29.45;;
47089;SDS011;32840;52.516;13.294;2022-11-14T12:28:51;46.63;;;27.67;;
47089;SDS011;32840;52.516;13.294;2022-11-14T12:31:56;48.33;;;28.20;;
47089;SDS011;32840;52.516;13.294;2022-11-14T12:34:47;47.90;;;26.90;;
47089;SDS011;32840;52.516;13.294;2022-11-14T12:37:33;51.90;;;30.85;;
47089;SDS011;32840;52.516;13.294;2022-11-14T12:40:25;48.13;;;27.33;;
47089;SDS011;32840;52.516;13.294;2022-11-14T12:43:35;49.95;;;27.83;;
47089;SDS011;32840;52.516;13.294;2022-11-14T12:46:25;42.90;;;26.58;;
47089;SDS011;32840;52.516;13.294;2022-11-14T13:10:13;44.95;;;26.45;;
47089;SDS011;32840;52.516;13.294;2022-11-14T13:13:11;41.67;;;25.52;;
47089;SDS011;32840;52.516;13.294;2022-11-14T13:16:23;42.38;;;25.40;;
47089;SDS011;32840;52.516;13.294;2022-11-14T13:19:30;42.10;;;25.95;;
47089;SDS011;32840;52.516;13.294;2022-11-14T13:22:35;42.15;;;25.27;;
47089;SDS011;32840;52.516;13.294;2022-11-14T13:25:23;40.22;;;24.45;;
47089;SDS011;32840;52.516;13.294;2022-11-14T13:49:53;40.35;;;24.77;;
47089;SDS011;32840;52.516;13.294;2022-11-14T13:52:50;39.63;;;25.67;;
47089;SDS011;32840;52.516;13.294;2022-11-14T13:55:52;38.90;;;23.92;;
47089;SDS011;32840;52.516;13.294;2022-11-14T14:02:00;50.20;;;28.25;;
47089;SDS011;32840;52.516;13.294;2022-11-14T14:05:08;36.83;;;22.77;;
47089;SDS011;32840;52.516;13.294;2022-11-14T14:08:11;39.83;;;25.50;;
47089;SDS011;32840;52.516;13.294;2022-11-14T14:11:26;39.70;;;24.98;;
47089;SDS011;32840;52.516;13.294;2022-11-14T14:26:23;43.33;;;24.00;;
47089;SDS011;32840;52.516;13.294;2022-11-14T14:29:23;39.95;;;24.92;;
47089;SDS011;32840;52.516;13.294;2022-11-14T14:32:15;35.25;;;23.67;;
47089;SDS011;32840;52.516;13.294;2022-11-14T14:38:11;42.40;;;24.92;;
47089;SDS011;32840;52.516;13.294;2022-11-14T14:41:04;40.42;;;24.58;;
47089;SDS011;32840;52.516;13.294;2022-11-14T14:43:52;45.78;;;24.73;;
47089;SDS011;32840;52.516;13.294;2022-11-14T14:46:38;40.70;;;24.42;;
47089;SDS011;32840;52.516;13.294;2022-11-14T14:49:31;39.53;;;24.85;;
47089;SDS011;32840;52.516;13.294;2022-11-14T14:52:37;37.75;;;23.23;;
47089;SDS011;32840;52.516;13.294;2022-11-14T14:55:33;34.81;;;23.57;;
47089;SDS011;32840;52.516;13.294;2022-11-14T15:01:11;40.63;;;23.85;;
47089;SDS011;32840;52.516;13.294;2022-11-14T15:04:01;41.65;;;24.88;;
47089;SDS011;32840;52.516;13.294;2022-11-14T15:06:51;38.47;;;24.92;;
47089;SDS011;32840;52.516;13.294;2022-11-14T15:09:38;39.30;;;24.50;;
47089;SDS011;32840;52.516;13.294;2022-11-14T15:12:42;40.92;;;24.85;;
47089;SDS011;32840;52.516;13.294;2022-11-14T15:15:28;38.13;;;23.58;;
47089;SDS011;32840;52.516;13.294;2022-11-14T15:18:30;37.22;;;24.50;;
47089;SDS011;32840;52.516;13.294;2022-11-14T15:27:04;36.95;;;23.40;;
47089;SDS011;32840;52.516;13.294;2022-11-14T15:29:56;37.78;;;23.65;;
47089;SDS011;32840;52.516;13.294;2022-11-14T15:32:49;36.72;;;23.60;;
47089;SDS011;32840;52.516;13.294;2022-11-14T15:35:36;38.92;;;24.40;;
47089;SDS011;32840;52.516;13.294;2022-11-14T15:38:23;36.60;;;24.50;;
47089;SDS011;32840;52.516;13.294;2022-11-14T15:41:21;40.25;;;23.60;;
47089;SDS011;32840;52.516;13.294;2022-11-14T15:47:26;39.60;;;24.88;;
47089;SDS011;32840;52.516;13.294;2022-11-14T15:50:21;42.15;;;24.20;;
47089;SDS011;32840;52.516;13.294;2022-11-14T15:53:21;38.92;;;24.30;;
47089;SDS011;32840;52.516;13.294;2022-11-14T15:56:09;37.45;;;23.65;;
47089;SDS011;32840;52.516;13.294;2022-11-14T15:58:56;40.58;;;25.50;;
47089;SDS011;32840;52.516;13.294;2022-11-14T16:01:41;39.35;;;25.70;;
47089;SDS011;32840;52.516;13.294;2022-11-14T16:04:29;45.28;;;25.63;;
47089;SDS011;32840;52.516;13.294;2022-11-14T16:07:17;41.58;;;25.70;;
47089;SDS011;32840;52.516;13.294;2022-11-14T16:10:02;40.88;;;25.83;;
47089;SDS011;32840;52.516;13.294;2022-11-14T16:12:49;39.97;;;25.15;;
47089;SDS011;32840;52.516;13.294;2022-11-14T16:15:34;42.13;;;26.25;;
47089;SDS011;32840;52.516;13.294;2022-11-14T16:18:19;49.60;;;27.30;;
47089;SDS011;32840;52.516;13.294;2022-11-14T16:21:04;41.80;;;26.13;;
47089;SDS011;32840;52.516;13.294;2022-11-14T16:23:52;42.30;;;26.98;;
47089;SDS011;32840;52.516;13.294;2022-11-14T16:26:37;45.45;;;27.50;;
47089;SDS011;32840;52.516;13.294;2022-11-14T16:29:24;42.78;;;26.75;;
47089;SDS011;32840;52.516;13.294;2022-11-14T16:32:09;44.85;;;27.17;;
47089;SDS011;32840;52.516;13.294;2022-11-14T16:34:54;43.55;;;27.60;;
47089;SDS011;32840;52.516;13.294;2022-11-14T16:37:39;47.13;;;27.40;;
47089;SDS011;32840;52.516;13.294;2022-11-14T16:40:26;42.60;;;28.40;;
47089;SDS011;32840;52.516;13.294;2022-11-14T16:43:12;48.55;;;28.50;;
47089;SDS011;32840;52.516;13.294;2022-11-14T16:46:01;44.25;;;29.45;;
47089;SDS011;32840;52.516;13.294;2022-11-14T16:48:49;50.55;;;29.35;;
47089;SDS011;32840;52.516;13.294;2022-11-14T16:51:34;45.70;;;28.10;;
47089;SDS011;32840;52.516;13.294;2022-11-14T16:54:19;46.10;;;28.77;;
47089;SDS011;32840;52.516;13.294;2022-11-14T16:57:04;44.65;;;28.17;;
47089;SDS011;32840;52.516;13.294;2022-11-14T16:59:49;43.15;;;28.35;;
47089;SDS011;32840;52.516;13.294;2022-11-14T17:02:38;46.42;;;26.88;;
47089;SDS011;32840;52.516;13.294;2022-11-14T17:05:25;45.50;;;28.17;;
47089;SDS011;32840;52.516;13.294;2022-11-14T17:08:09;48.63;;;29.58;;
47089;SDS011;32840;52.516;13.294;2022-11-14T17:10:54;44.15;;;28.35;;
47089;SDS011;32840;52.516;13.294;2022-11-14T17:13:39;46.35;;;27.58;;
47089;SDS011;32840;52.516;13.294;2022-11-14T17:16:24;44.35;;;27.80;;
47089;SDS011;32840;52.516;13.294;2022-11-14T17:19:09;43.65;;;27.60;;
47089;SDS011;32840;52.516;13.294;2022-11-14T17:21:54;46.55;;;28.80;;
47089;SDS011;32840;52.516;13.294;2022-11-14T17:24:39;44.15;;;28.85;;
47089;SDS011;32840;52.516;13.294;2022-11-14T17:27:25;45.40;;;27.10;;
47089;SDS011;32840;52.516;13.294;2022-11-14T17:30:10;45.13;;;28.45;;
47089;SDS011;32840;52.516;13.294;2022-11-14T17:32:55;48.33;;;29.73;;
47089;SDS011;32840;52.516;13.294;2022-11-14T17:35:40;44.42;;;28.35;;
47089;SDS011;32840;52.516;13.294;2022-11-14T17:38:25;44.60;;;28.25;;
47089;SDS011;32840;52.516;13.294;2022-11-14T17:41:10;43.42;;;28.38;;
47089;SDS011;32840;52.516;13.294;2022-11-14T17:43:55;46.15;;;27.77;;
47089;SDS011;32840;52.516;13.294;2022-11-14T17:46:42;45.40;;;28.35;;
47089;SDS011;32840;52.516;13.294;2022-11-14T17:49:27;43.80;;;27.92;;
47089;SDS011;32840;52.516;13.294;2022-11-14T17:52:12;50.45;;;28.08;;
47089;SDS011;32840;52.516;13.294;2022-11-14T17:54:57;45.47;;;28.08;;
47089;SDS011;32840;52.516;13.294;2022-11-14T17:57:42;46.92;;;27.95;;
47089;SDS011;32840;52.516;13.294;2022-11-14T18:00:26;42.83;;;27.30;;
47089;SDS011;32840;52.516;13.294;2022-11-14T18:03:11;42.95;;;27.20;;
47089;SDS011;32840;52.516;13.294;2022-11-14T18:06:03;40.22;;;26.80;;
47089;SDS011;32840;52.516;13.294;2022-11-14T18:08:52;46.42;;;28.33;;
47089;SDS011;32840;52.516;13.294;2022-11-14T18:11:37;45.58;;;29.25;;
47089;SDS011;32840;52.516;13.294;2022-11-14T18:14:22;42.88;;;27.00;;
47089;SDS011;32840;52.516;13.294;2022-11-14T18:17:07;41.63;;;28.00;;
47089;SDS011;32840;52.516;13.294;2022-11-14T18:19:52;43.88;;;28.52;;